Time;durP1;ratioP1;P1;durP2;ratioP2;P2;SDS_P1;SDS_P2;PMS_P1;PMS_P2;Temp;Humidity;BMP_temperature;BMP_pressure;BME280_temperature;BME280_humidity;BME280_pressure;Samples;Min_cycle;Max_cycle;Signal;HPM_P1;HPM_P2
2021/10/24 00:00:05;;;;;;;5.70;5.17;;;;;;;1.22;94.82;96579.06;5039553;28;20230;-70
2021/10/24 00:02:40;;;;;;;7.03;6.17;;;;;;;1.21;94.71;96581.78;5041076;28;20716;-70
2021/10/24 00:05:09;;;;;;;7.30;6.60;;;;;;;1.16;94.10;96581.25;5041056;28;20207;-70
2021/10/24 00:07:38;;;;;;;5.93;5.33;;;;;;;1.11;95.25;96584.16;5035251;28;20282;-70
2021/10/24 00:10:07;;;;;;;7.07;5.77;;;;;;;1.11;94.55;96576.38;5036206;28;20226;-70
2021/10/24 00:12:36;;;;;;;7.63;6.90;;;;;;;1.03;95.05;96579.47;5038275;28;20211;-70
2021/10/24 00:15:05;;;;;;;5.60;5.20;;;;;;;0.99;95.58;96579.78;5043255;28;20510;-70
2021/10/24 00:17:33;;;;;;;6.73;6.23;;;;;;;0.98;95.21;96578.09;5044905;28;20230;-70
2021/10/24 00:20:04;;;;;;;6.87;6.23;;;;;;;0.97;94.81;96586.84;5038992;28;20253;-70
2021/10/24 00:22:32;;;;;;;6.07;5.57;;;;;;;1.00;95.81;96582.25;5035433;28;20306;-69
2021/10/24 00:25:00;;;;;;;5.47;4.97;;;;;;;1.03;95.80;96589.03;5042955;28;20254;-70
2021/10/24 00:27:28;;;;;;;7.33;6.20;;;;;;;1.05;95.35;96585.41;5038293;28;20230;-70
2021/10/24 00:29:56;;;;;;;5.57;4.10;;;;;;;1.12;96.06;96585.81;5040259;28;20301;-70
2021/10/24 00:32:24;;;;;;;6.43;5.93;;;;;;;1.11;95.57;96579.81;5036622;28;20715;-71
2021/10/24 00:34:52;;;;;;;8.60;5.70;;;;;;;1.12;95.71;96572.84;5043101;28;20281;-70
2021/10/24 00:37:21;;;;;;;5.70;5.23;;;;;;;1.13;95.24;96577.09;5035238;28;20585;-70
2021/10/24 00:39:50;;;;;;;5.70;5.20;;;;;;;1.13;95.43;96575.31;5042175;28;20600;-71
2021/10/24 00:42:45;;;;;;;6.63;5.97;;;;;;;1.12;95.21;96575.44;5037746;28;20308;-71
2021/10/24 00:45:13;;;;;;;6.80;5.67;;;;;;;1.10;95.19;96577.31;5030512;28;20381;-70
2021/10/24 00:47:41;;;;;;;5.67;5.20;;;;;;;1.08;94.74;96574.78;5041680;28;20384;-70
2021/10/24 00:50:10;;;;;;;7.80;6.80;;;;;;;1.08;94.92;96579.16;5054339;28;20215;-70
2021/10/24 00:52:42;;;;;;;6.40;5.47;;;;;;;1.06;94.51;96565.44;5039431;28;20676;-70
2021/10/24 00:55:11;;;;;;;6.10;5.67;;;;;;;1.05;94.53;96561.19;5035269;28;20699;-70
2021/10/24 00:57:39;;;;;;;8.30;5.23;;;;;;;1.01;94.48;96551.94;5038964;28;20219;-70
2021/10/24 01:00:10;;;;;;;7.43;6.67;;;;;;;0.99;94.30;96557.22;5040633;28;20361;-70
2021/10/24 01:02:38;;;;;;;7.27;6.77;;;;;;;1.01;94.35;96562.34;5035691;28;20468;-70
2021/10/24 01:05:09;;;;;;;7.33;6.27;;;;;;;0.99;93.74;96558.97;5058045;28;20242;-70
2021/10/24 01:07:42;;;;;;;6.43;6.00;;;;;;;0.99;94.36;96551.19;5057596;28;20235;-70
2021/10/24 01:10:15;;;;;;;9.80;6.83;;;;;;;0.97;94.49;96546.09;5044825;28;20214;-70
2021/10/24 01:12:45;;;;;;;8.50;5.27;;;;;;;0.96;93.76;96546.19;5055909;28;20211;-70
2021/10/24 01:15:13;;;;;;;7.47;5.70;;;;;;;0.94;94.42;96540.28;5038136;28;20764;-70
2021/10/24 01:17:41;;;;;;;6.47;5.97;;;;;;;0.91;94.20;96532.69;5038477;28;20231;-70
2021/10/24 01:20:17;;;;;;;15.00;7.07;;;;;;;0.91;94.67;96533.50;5037198;28;20767;-70
2021/10/24 01:22:47;;;;;;;7.23;6.60;;;;;;;0.88;94.61;96531.13;5053771;28;20232;-70
2021/10/24 01:25:17;;;;;;;6.03;5.47;;;;;;;0.88;94.12;96535.50;5052421;28;20272;-70
2021/10/24 01:27:46;;;;;;;5.47;5.07;;;;;;;0.89;94.85;96527.59;5030782;28;20218;-70
2021/10/24 01:30:15;;;;;;;5.23;4.80;;;;;;;0.90;94.85;96528.41;5042201;28;20261;-70
2021/10/24 01:32:43;;;;;;;4.03;3.80;;;;;;;0.87;94.54;96528.63;5041992;28;20223;-70
2021/10/24 01:35:12;;;;;;;4.73;4.40;;;;;;;0.85;95.28;96529.56;5054455;28;20250;-71
2021/10/24 01:37:43;;;;;;;4.20;3.80;;;;;;;0.83;94.92;96523.66;5050775;28;20211;-70
2021/10/24 01:40:16;;;;;;;9.60;4.90;;;;;;;0.82;94.89;96522.00;5040844;28;20226;-71
2021/10/24 01:42:49;;;;;;;6.63;6.03;;;;;;;0.81;94.65;96520.31;5041403;28;20223;-70
2021/10/24 01:45:19;;;;;;;4.60;4.20;;;;;;;0.79;94.89;96521.34;5038653;28;20227;-70
2021/10/24 01:47:47;;;;;;;4.43;4.03;;;;;;;0.80;94.39;96512.63;5032416;28;20227;-70
2021/10/24 01:50:15;;;;;;;4.83;4.43;;;;;;;0.77;94.27;96508.47;5039485;28;20269;-70
2021/10/24 01:52:48;;;;;;;3.93;3.63;;;;;;;0.77;94.51;96512.84;5038373;28;20219;-71
2021/10/24 01:55:20;;;;;;;5.53;3.83;;;;;;;0.79;95.05;96509.19;5037194;28;20218;-70
2021/10/24 01:57:52;;;;;;;6.20;4.40;;;;;;;0.78;94.36;96502.31;5035893;28;20228;-71
2021/10/24 02:00:22;;;;;;;5.53;4.13;;;;;;;0.78;95.50;96504.94;5036752;28;20754;-70
2021/10/24 02:02:54;;;;;;;5.20;4.53;;;;;;;0.81;95.28;96511.69;5034622;28;20241;-70
2021/10/24 02:05:37;;;;;;;5.90;4.00;;;;;;;0.83;95.13;96502.03;5034647;28;20226;-70
2021/10/24 02:08:06;;;;;;;5.40;4.97;;;;;;;0.84;94.92;96508.88;5032804;28;20250;-70
2021/10/24 02:10:37;;;;;;;3.63;3.33;;;;;;;0.83;94.66;96508.06;5037027;28;20211;-70
2021/10/24 02:13:10;;;;;;;4.00;3.70;;;;;;;0.83;94.41;96508.06;5041871;28;20225;-70
2021/10/24 02:15:39;;;;;;;3.10;3.00;;;;;;;0.83;94.40;96500.28;5043532;28;20298;-70
2021/10/24 02:18:09;;;;;;;4.17;3.87;;;;;;;0.83;94.88;96497.66;5037037;28;20218;-71
2021/10/24 02:20:42;;;;;;;3.80;3.50;;;;;;;0.88;95.06;96488.72;5041621;28;20215;-70
2021/10/24 02:23:11;;;;;;;3.80;3.60;;;;;;;0.87;94.92;96484.47;5043548;28;20254;-70
2021/10/24 02:25:40;;;;;;;3.57;3.27;;;;;;;0.76;94.67;96493.81;5041310;28;20647;-70
2021/10/24 02:28:09;;;;;;;7.73;4.20;;;;;;;0.75;94.83;96494.75;5040716;28;20310;-70
2021/10/24 02:30:38;;;;;;;5.10;3.83;;;;;;;0.73;94.34;96496.63;5037976;28;20278;-70
2021/10/24 02:33:29;;;;;;;5.27;3.80;;;;;;;0.72;93.74;96489.75;5038228;28;20725;-70
2021/10/24 02:36:16;;;;;;;3.83;3.10;;;;;;;0.68;94.29;96484.88;5042125;28;20215;-70
2021/10/24 02:38:51;;;;;;;4.87;4.37;;;;;;;0.65;94.44;96483.31;5042285;28;20309;-70
2021/10/24 02:41:21;;;;;;;4.50;4.10;;;;;;;0.64;94.45;96470.41;5060823;28;20206;-70
2021/10/24 02:43:52;;;;;;;3.70;3.40;;;;;;;0.62;94.18;96477.47;5034441;28;20224;-70
2021/10/24 02:46:22;;;;;;;3.67;3.47;;;;;;;0.61;94.28;96470.63;5037927;28;20223;-70
2021/10/24 02:48:51;;;;;;;3.97;3.60;;;;;;;0.60;94.41;96469.78;5058243;28;20334;-70
2021/10/24 02:51:19;;;;;;;4.83;4.43;;;;;;;0.60;94.57;96459.41;5036555;28;20246;-70
2021/10/24 02:53:47;;;;;;;3.23;3.03;;;;;;;0.58;94.46;96461.28;5039901;28;20226;-70
2021/10/24 02:56:16;;;;;;;5.30;3.33;;;;;;;0.58;94.38;96466.47;5041198;28;20610;-70
2021/10/24 02:58:46;;;;;;;5.70;3.43;;;;;;;0.56;94.63;96463.16;5044390;28;20238;-70
2021/10/24 03:01:14;;;;;;;4.23;3.53;;;;;;;0.54;94.26;96465.00;5044523;28;20489;-70
2021/10/24 03:03:42;;;;;;;3.67;3.47;;;;;;;0.52;94.74;96461.69;5042412;28;20257;-70
2021/10/24 03:06:11;;;;;;;4.37;4.03;;;;;;;0.48;94.56;96465.44;5053705;28;20306;-70
2021/10/24 03:08:39;;;;;;;4.20;3.90;;;;;;;0.40;94.81;96468.53;5045120;28;20230;-70
2021/10/24 03:11:08;;;;;;;4.97;3.63;;;;;;;0.36;95.10;96469.66;5042263;28;20226;-70
2021/10/24 03:13:36;;;;;;;3.73;3.33;;;;;;;0.35;94.75;96473.19;5039152;28;20610;-70
2021/10/24 03:16:07;;;;;;;3.63;3.33;;;;;;;0.35;95.02;96474.94;5043141;28;20664;-70
2021/10/24 03:18:35;;;;;;;3.43;3.17;;;;;;;0.34;94.88;96468.09;5044248;28;20223;-70
2021/10/24 03:21:03;;;;;;;6.33;3.27;;;;;;;0.33;95.17;96467.28;5036566;28;20231;-70
2021/10/24 03:23:32;;;;;;;2.73;2.53;;;;;;;0.33;94.69;96471.63;5042185;28;20726;-71
2021/10/24 03:26:00;;;;;;;3.73;3.20;;;;;;;0.30;95.10;96477.03;5038806;28;20211;-70
2021/10/24 03:28:29;;;;;;;4.17;3.87;;;;;;;0.30;95.37;96477.03;5042941;28;20215;-70
2021/10/24 03:30:58;;;;;;;3.70;3.40;;;;;;;0.31;95.60;96478.69;5042619;28;20256;-70
2021/10/24 03:33:30;;;;;;;3.47;2.97;;;;;;;0.31;95.11;96478.69;5055829;28;20846;-70
2021/10/24 03:35:59;;;;;;;3.70;3.40;;;;;;;0.29;94.91;96473.59;5040345;28;20250;-71
2021/10/24 03:38:28;;;;;;;3.27;2.97;;;;;;;0.28;95.09;96469.34;5035517;28;20411;-70
2021/10/24 03:40:59;;;;;;;5.43;3.40;;;;;;;0.28;95.44;96472.78;5055492;28;20250;-70
2021/10/24 03:43:28;;;;;;;4.00;3.60;;;;;;;0.26;95.72;96472.03;5037851;28;20749;-70
2021/10/24 03:45:57;;;;;;;6.07;4.67;;;;;;;0.24;95.12;96476.50;5041244;28;20603;-70
2021/10/24 03:48:26;;;;;;;4.63;4.30;;;;;;;0.20;95.12;96476.81;5041312;28;20746;-70
2021/10/24 03:50:55;;;;;;;2.33;2.23;;;;;;;0.20;95.06;96477.63;5042546;28;20246;-70
2021/10/24 03:53:25;;;;;;;10.53;3.47;;;;;;;0.21;94.92;96479.31;5038709;28;20219;-70
2021/10/24 03:55:53;;;;;;;3.93;3.63;;;;;;;0.22;95.41;96486.16;5044326;28;20234;-70
2021/10/24 03:58:22;;;;;;;2.83;2.60;;;;;;;0.20;94.53;96472.44;5041461;28;20215;-70
2021/10/24 04:00:50;;;;;;;4.97;4.57;;;;;;;0.19;95.04;96482.94;5036677;28;20223;-70
2021/10/24 04:03:24;;;;;;;5.70;3.80;;;;;;;0.15;94.52;96479.69;5036620;28;20222;-70
2021/10/24 04:05:52;;;;;;;4.70;3.77;;;;;;;0.09;94.76;96474.91;5056928;28;20230;-70
2021/10/24 04:08:22;;;;;;;3.97;3.33;;;;;;;0.08;94.78;96477.59;5036248;28;20476;-70
2021/10/24 04:10:52;;;;;;;3.60;3.30;;;;;;;0.02;94.84;96478.84;5043208;28;20293;-70
2021/10/24 04:13:21;;;;;;;5.43;5.00;;;;;;;0.03;95.11;96474.47;5058343;28;20313;-70
2021/10/24 04:15:49;;;;;;;4.33;3.13;;;;;;;0.05;95.46;96472.59;5041200;28;20221;-71
2021/10/24 04:18:47;;;;;;;6.90;5.67;;;;;;;-0.02;95.45;96461.78;5038939;28;20225;-70
2021/10/24 04:21:15;;;;;;;3.90;3.60;;;;;;;-0.04;95.20;96469.66;5042654;28;20687;-70
2021/10/24 04:23:44;;;;;;;3.83;3.57;;;;;;;-0.06;95.74;96471.53;5040133;28;20232;-70
2021/10/24 04:26:12;;;;;;;5.10;4.00;;;;;;;-0.09;95.94;96463.09;5059310;28;20699;-70
2021/10/24 04:28:40;;;;;;;3.63;3.33;;;;;;;-0.10;95.76;96464.03;5032735;28;20219;-70
2021/10/24 04:31:08;;;;;;;5.80;5.27;;;;;;;-0.13;96.00;96459.88;5043122;28;20253;-70
2021/10/24 04:33:37;;;;;;;4.60;4.20;;;;;;;-0.14;95.73;96457.41;5043257;28;20226;-70
2021/10/24 04:36:05;;;;;;;5.00;3.37;;;;;;;-0.12;95.75;96458.97;5044314;28;20218;-71
2021/10/24 04:38:33;;;;;;;3.83;2.90;;;;;;;-0.10;95.83;96454.50;5042802;28;20283;-70
2021/10/24 04:41:03;;;;;;;4.60;4.20;;;;;;;-0.07;96.08;96463.88;5040074;28;20723;-70
2021/10/24 04:43:31;;;;;;;4.00;3.70;;;;;;;-0.09;96.01;96456.19;5033052;28;20758;-70
2021/10/24 04:46:00;;;;;;;5.43;5.03;;;;;;;-0.08;95.42;96463.03;5039313;28;20682;-70
2021/10/24 04:48:29;;;;;;;4.13;2.37;;;;;;;-0.09;95.77;96460.50;5040042;28;20246;-70
2021/10/24 04:50:57;;;;;;;4.53;4.17;;;;;;;-0.10;95.32;96464.03;5046420;28;20212;-70
2021/10/24 04:53:26;;;;;;;4.47;3.37;;;;;;;-0.14;95.45;96460.81;5041483;28;20228;-71
2021/10/24 04:55:55;;;;;;;3.73;3.43;;;;;;;-0.10;95.13;96464.03;5042344;28;20234;-70
2021/10/24 04:58:25;;;;;;;3.37;3.07;;;;;;;-0.10;95.57;96453.66;5059581;28;20221;-70
2021/10/24 05:00:53;;;;;;;4.47;3.83;;;;;;;-0.11;95.32;96446.81;5041893;28;20233;-70
2021/10/24 05:03:24;;;;;;;2.43;2.33;;;;;;;-0.14;95.28;96441.84;5039400;28;20222;-70
2021/10/24 05:05:53;;;;;;;3.87;3.53;;;;;;;-0.12;95.50;96447.75;5038260;28;20229;-70
2021/10/24 05:08:20;;;;;;;5.47;3.70;;;;;;;-0.16;95.13;96441.94;5034804;28;20226;-70
2021/10/24 05:10:49;;;;;;;5.23;4.53;;;;;;;-0.15;95.47;96441.00;5041800;28;20269;-70
2021/10/24 05:13:17;;;;;;;5.67;5.13;;;;;;;-0.16;95.97;96441.13;5040111;28;20222;-70
2021/10/24 05:15:46;;;;;;;3.67;3.37;;;;;;;-0.14;96.04;96447.03;5034230;28;20237;-70
2021/10/24 05:18:15;;;;;;;5.03;4.60;;;;;;;-0.16;95.74;96443.69;5064898;28;20224;-70
2021/10/24 05:20:43;;;;;;;5.07;4.43;;;;;;;-0.19;95.77;96438.69;5043715;28;20262;-70
2021/10/24 05:23:11;;;;;;;4.20;3.50;;;;;;;-0.20;95.44;96437.88;5040874;28;20461;-70
2021/10/24 05:25:56;;;;;;;4.20;3.90;;;;;;;-0.19;95.10;96438.69;5041401;28;20229;-70
2021/10/24 05:28:25;;;;;;;4.90;3.80;;;;;;;-0.19;95.77;96433.50;5041642;28;20234;-70
2021/10/24 05:30:55;;;;;;;5.20;4.73;;;;;;;-0.15;95.50;96429.81;5034444;28;20229;-68
2021/10/24 05:33:25;;;;;;;5.27;4.10;;;;;;;-0.15;95.57;96435.00;5037407;28;20267;-68
2021/10/24 05:36:22;;;;;;;7.57;5.83;;;;;;;-0.15;95.66;96425.44;5038575;28;20714;-69
2021/10/24 05:38:50;;;;;;;7.27;4.97;;;;;;;-0.15;95.42;96424.63;5047712;28;20272;-67
2021/10/24 05:41:26;;;;;;;5.67;5.17;;;;;;;-0.21;95.59;96422.41;5042153;28;20767;-68
2021/10/24 05:43:56;;;;;;;5.57;5.17;;;;;;;-0.21;95.36;96431.00;5042376;28;20651;-68
2021/10/24 05:46:26;;;;;;;4.80;4.40;;;;;;;-0.23;95.82;96432.88;5040898;28;20227;-68
2021/10/24 05:48:59;;;;;;;4.23;4.00;;;;;;;-0.21;95.29;96440.56;5040981;28;20316;-68
2021/10/24 05:51:27;;;;;;;5.27;4.77;;;;;;;-0.30;95.67;96440.22;5041282;28;20214;-69
2021/10/24 05:53:56;;;;;;;5.13;4.83;;;;;;;-0.34;95.84;96454.31;5062841;28;20633;-68
2021/10/24 05:56:33;;;;;;;5.70;5.17;;;;;;;-0.40;95.16;96446.94;5040948;28;20693;-68
2021/10/24 05:59:01;;;;;;;5.67;5.27;;;;;;;-0.41;95.59;96449.63;5037673;28;20229;-68
2021/10/24 06:01:40;;;;;;;5.80;5.30;;;;;;;-0.38;95.64;96450.25;5049218;28;20218;-68
2021/10/24 06:04:40;;;;;;;6.70;6.20;;;;;;;-0.37;96.08;96444.13;5033966;28;20711;-68
2021/10/24 06:07:21;;;;;;;5.00;4.60;;;;;;;-0.35;95.86;96449.25;5042627;28;20237;-68
2021/10/24 06:09:53;;;;;;;5.43;4.93;;;;;;;-0.33;96.12;96453.38;5045207;28;20230;-68
2021/10/24 06:12:40;;;;;;;5.83;5.43;;;;;;;-0.31;96.27;96461.91;5039521;28;20228;-69
2021/10/24 06:15:14;;;;;;;5.40;4.90;;;;;;;-0.28;95.74;96455.69;5041838;28;20244;-68
2021/10/24 06:17:45;;;;;;;7.07;6.47;;;;;;;-0.20;96.25;96463.81;5031939;28;20241;-68
2021/10/24 06:20:14;;;;;;;5.40;5.00;;;;;;;-0.14;96.30;96462.59;5047258;28;20488;-68
2021/10/24 06:22:44;;;;;;;5.13;4.43;;;;;;;-0.08;96.61;96464.78;5043541;28;20700;-68
2021/10/24 06:25:15;;;;;;;6.13;5.63;;;;;;;-0.02;96.27;96467.81;5043222;28;20245;-69
2021/10/24 06:27:47;;;;;;;6.20;5.73;;;;;;;0.03;96.84;96467.53;5045056;28;20234;-68
2021/10/24 06:30:19;;;;;;;5.70;5.30;;;;;;;0.05;96.23;96473.44;5041167;28;20245;-68
2021/10/24 06:33:23;;;;;;;5.30;4.80;;;;;;;0.00;94.92;96475.50;5046230;28;20236;-69
2021/10/24 06:36:09;;;;;;;5.10;4.77;;;;;;;0.06;95.52;96477.69;5038944;28;20221;-69
2021/10/24 06:38:56;;;;;;;6.80;6.37;;;;;;;0.12;95.08;96469.53;5045052;28;20237;-69
2021/10/24 06:41:29;;;;;;;4.93;4.53;;;;;;;0.22;95.36;96474.94;5043648;28;20226;-69
2021/10/24 06:44:11;;;;;;;5.47;4.80;;;;;;;0.32;95.09;96480.34;5037498;28;20719;-69
2021/10/24 06:46:57;;;;;;;5.23;4.73;;;;;;;0.43;95.46;96477.88;5044675;28;20550;-68
2021/10/24 06:49:47;;;;;;;6.20;5.90;;;;;;;0.56;95.17;96483.94;5042805;28;20242;-68
2021/10/24 06:52:45;;;;;;;4.47;4.17;;;;;;;0.67;94.78;96480.63;5047040;28;20230;-68
2021/10/24 06:55:38;;;;;;;5.33;5.03;;;;;;;0.78;94.71;96484.16;5037289;28;20587;-69
2021/10/24 06:58:25;;;;;;;5.30;4.90;;;;;;;0.89;95.33;96490.38;5043550;28;20459;-69
2021/10/24 07:01:12;;;;;;;6.40;5.80;;;;;;;1.02;94.97;96491.22;5039235;28;20725;-68
2021/10/24 07:04:01;;;;;;;5.53;5.00;;;;;;;1.14;94.48;96483.41;5037448;28;20417;-69
2021/10/24 07:06:43;;;;;;;6.20;5.13;;;;;;;1.26;95.20;96479.13;5041053;28;20775;-69
2021/10/24 07:09:21;;;;;;;6.63;6.13;;;;;;;1.37;94.43;96484.41;5035836;28;20233;-69
2021/10/24 07:12:08;;;;;;;7.27;6.70;;;;;;;1.49;93.70;96487.09;5036695;28;20240;-68
2021/10/24 07:14:38;;;;;;;7.67;7.00;;;;;;;1.61;94.49;96481.84;5054475;28;20556;-68
2021/10/24 07:17:06;;;;;;;6.27;5.73;;;;;;;1.77;93.78;96492.00;5037669;28;20593;-69
2021/10/24 07:19:34;;;;;;;6.80;6.20;;;;;;;1.94;94.02;96480.38;5040314;28;20222;-69
2021/10/24 07:22:11;;;;;;;8.73;8.00;;;;;;;2.18;94.10;96493.38;5039330;28;20226;-68
2021/10/24 07:24:59;;;;;;;8.27;7.63;;;;;;;2.42;93.64;96491.59;5044478;28;20234;-68
2021/10/24 07:27:31;;;;;;;7.00;6.43;;;;;;;2.59;92.75;96494.72;5045936;28;20231;-69
2021/10/24 07:30:01;;;;;;;7.13;6.63;;;;;;;2.78;92.47;96497.63;5039863;28;20594;-69
2021/10/24 07:32:34;;;;;;;7.20;6.60;;;;;;;2.89;91.99;96487.19;5034019;28;20219;-69
2021/10/24 07:35:21;;;;;;;6.33;5.83;;;;;;;3.16;91.65;96491.25;5043609;28;20953;-69
2021/10/24 07:37:51;;;;;;;9.67;8.77;;;;;;;3.30;90.40;96481.44;5037975;28;20238;-69
2021/10/24 07:40:21;;;;;;;7.83;7.17;;;;;;;3.43;89.55;96489.13;5059001;28;20226;-69
2021/10/24 07:42:49;;;;;;;6.47;6.07;;;;;;;3.54;89.38;96481.28;5041508;28;20228;-69
2021/10/24 07:45:17;;;;;;;5.57;5.17;;;;;;;3.65;88.46;96483.03;5040698;28;20237;-69
2021/10/24 07:47:46;;;;;;;6.30;5.90;;;;;;;3.79;87.82;96492.41;5039842;28;20227;-69
2021/10/24 07:50:13;;;;;;;7.03;6.53;;;;;;;3.97;88.44;96488.34;5028833;28;20219;-69
2021/10/24 07:52:45;;;;;;;5.80;5.40;;;;;;;4.10;87.99;96493.38;5040850;28;20288;-69
2021/10/24 07:55:33;;;;;;;6.53;6.03;;;;;;;4.34;87.53;96485.34;5040620;28;20290;-70
2021/10/24 07:58:03;;;;;;;7.90;7.20;;;;;;;4.45;86.78;96496.59;5038364;28;20224;-69
2021/10/24 08:00:32;;;;;;;6.13;5.67;;;;;;;4.53;85.78;96493.34;5040024;28;20220;-69
2021/10/24 08:03:04;;;;;;;6.80;5.83;;;;;;;4.65;85.88;96494.94;5040194;28;20251;-70
2021/10/24 08:05:33;;;;;;;7.63;7.00;;;;;;;4.95;85.00;96490.75;5041486;28;20585;-70
2021/10/24 08:08:02;;;;;;;5.07;4.67;;;;;;;5.30;83.70;96491.22;5039459;28;20650;-70
2021/10/24 08:10:33;;;;;;;6.40;5.70;;;;;;;5.69;82.88;96491.38;5035677;28;20246;-70
2021/10/24 08:13:01;;;;;;;5.07;4.67;;;;;;;5.92;81.58;96498.06;5042284;28;20224;-70
2021/10/24 08:15:29;;;;;;;6.40;5.80;;;;;;;5.93;80.90;96497.09;5041326;28;20290;-70
2021/10/24 08:17:58;;;;;;;5.70;4.73;;;;;;;6.03;81.00;96489.25;5041088;28;20240;-70
2021/10/24 08:20:52;;;;;;;6.27;5.87;;;;;;;6.51;80.73;96489.31;5035940;28;20224;-70
2021/10/24 08:23:21;;;;;;;5.67;5.37;;;;;;;7.05;78.05;96487.88;5039411;28;20291;-70
2021/10/24 08:25:53;;;;;;;6.23;5.60;;;;;;;7.52;76.19;96479.16;5039314;28;20316;-70
2021/10/24 08:28:22;;;;;;;6.00;5.23;;;;;;;7.87;74.61;96488.94;5038092;28;20234;-70
2021/10/24 08:31:12;;;;;;;5.57;5.07;;;;;;;8.31;73.62;96484.63;5035899;28;20228;-70
2021/10/24 08:33:42;;;;;;;5.87;5.20;;;;;;;8.68;72.83;96483.69;5032674;28;20812;-70
2021/10/24 08:36:11;;;;;;;5.30;4.50;;;;;;;8.93;71.47;96484.72;5041086;28;20230;-70
2021/10/24 08:38:40;;;;;;;4.40;4.10;;;;;;;9.36;70.71;96489.94;5041762;28;20277;-70
2021/10/24 08:41:10;;;;;;;6.80;6.10;;;;;;;9.66;67.61;96485.16;5036697;28;20204;-70
2021/10/24 08:43:40;;;;;;;4.57;4.27;;;;;;;9.86;67.99;96483.91;5031080;28;20705;-70
2021/10/24 08:46:08;;;;;;;4.03;3.73;;;;;;;10.22;68.17;96481.09;5038827;28;20297;-70
2021/10/24 08:48:36;;;;;;;6.37;3.77;;;;;;;10.66;65.58;96486.09;5038152;28;20667;-70
2021/10/24 08:51:04;;;;;;;5.83;5.37;;;;;;;11.02;65.53;96484.78;5036719;28;20216;-70
2021/10/24 08:53:32;;;;;;;4.30;4.10;;;;;;;11.32;63.56;96479.78;5038303;28;20254;-70
2021/10/24 08:56:01;;;;;;;5.70;5.30;;;;;;;11.62;63.79;96481.72;5043567;28;20226;-70
2021/10/24 08:58:30;;;;;;;4.23;3.93;;;;;;;12.08;62.80;96481.91;5039061;28;20443;-70
2021/10/24 09:00:58;;;;;;;4.57;3.97;;;;;;;12.33;60.84;96474.63;5041135;28;20213;-70
2021/10/24 09:03:27;;;;;;;5.70;5.33;;;;;;;12.37;60.61;96480.41;5037476;28;20320;-71
2021/10/24 09:05:56;;;;;;;6.57;4.13;;;;;;;12.68;60.48;96478.53;5041265;28;20227;-70
2021/10/24 09:08:26;;;;;;;4.97;3.43;;;;;;;13.19;59.52;96484.13;5036211;28;20333;-70
2021/10/24 09:10:56;;;;;;;4.70;4.30;;;;;;;13.58;57.73;96485.72;5040548;28;20222;-70
2021/10/24 09:13:27;;;;;;;4.23;4.03;;;;;;;14.18;56.15;96487.34;5035121;28;20247;-71
2021/10/24 09:15:58;;;;;;;4.10;3.70;;;;;;;14.44;55.68;96482.31;5039155;28;20360;-71
2021/10/24 09:18:32;;;;;;;3.10;2.77;;;;;;;14.52;55.66;96478.75;5037648;28;20771;-71
2021/10/24 09:21:20;;;;;;;3.70;3.40;;;;;;;14.79;54.55;96485.16;5036904;28;20254;-71
2021/10/24 09:23:50;;;;;;;3.57;3.37;;;;;;;15.05;55.30;96485.41;5029946;28;20651;-68
2021/10/24 09:26:22;;;;;;;3.30;3.10;;;;;;;15.50;52.86;96477.97;5038286;28;20237;-68
2021/10/24 09:29:01;;;;;;;4.00;3.70;;;;;;;15.72;53.55;96475.28;5038695;28;20229;-68
2021/10/24 09:31:32;;;;;;;3.83;3.53;;;;;;;16.05;51.62;96480.78;5042377;28;20739;-68
2021/10/24 09:34:14;;;;;;;3.40;2.50;;;;;;;16.42;50.56;96472.31;5040303;28;20234;-68
2021/10/24 09:36:54;;;;;;;10.30;2.77;;;;;;;16.78;51.19;96476.53;5042227;28;20211;-68
2021/10/24 09:39:48;;;;;;;3.47;3.27;;;;;;;16.79;50.47;96472.84;5033997;28;20865;-68
2021/10/24 09:42:18;;;;;;;3.73;3.53;;;;;;;17.40;49.13;96469.19;5042773;28;20219;-68
2021/10/24 09:45:05;;;;;;;5.43;3.67;;;;;;;17.32;47.79;96467.56;5042065;28;20230;-68
2021/10/24 09:47:36;;;;;;;2.87;2.73;;;;;;;17.14;48.75;96476.16;5040979;28;20883;-68
2021/10/24 09:50:04;;;;;;;4.60;4.30;;;;;;;17.34;48.60;96476.97;5040078;28;20231;-68
2021/10/24 09:52:34;;;;;;;3.40;3.10;;;;;;;17.53;47.72;96470.00;5041919;28;20215;-68
2021/10/24 09:55:16;;;;;;;4.03;3.60;;;;;;;17.57;48.73;96465.06;5038885;28;20647;-68
2021/10/24 09:57:46;;;;;;;4.13;3.93;;;;;;;17.58;47.68;96467.53;5039887;28;20477;-68
2021/10/24 10:00:14;;;;;;;4.03;2.30;;;;;;;17.66;47.96;96469.16;5042900;28;20215;-71
2021/10/24 10:02:44;;;;;;;3.00;2.73;;;;;;;17.65;48.18;96462.19;5040383;28;20261;-71
2021/10/24 10:05:12;;;;;;;2.43;2.33;;;;;;;17.85;47.48;96456.81;5039287;28;20273;-71
2021/10/24 10:07:40;;;;;;;4.17;2.27;;;;;;;18.39;47.44;96453.75;5043193;28;20296;-71
2021/10/24 10:10:08;;;;;;;3.87;3.63;;;;;;;19.00;46.09;96455.84;5040345;28;20245;-71
2021/10/24 10:12:42;;;;;;;3.20;2.90;;;;;;;19.27;46.20;96450.28;5056192;28;20772;-71
2021/10/24 10:15:11;;;;;;;4.93;4.63;;;;;;;19.66;43.57;96443.78;5038108;28;20231;-71
2021/10/24 10:17:39;;;;;;;4.20;3.93;;;;;;;19.87;45.09;96439.84;5026005;28;20229;-68
2021/10/24 10:20:27;;;;;;;3.00;2.80;;;;;;;20.07;44.31;96440.44;5034795;28;20314;-68
2021/10/24 10:23:04;;;;;;;3.87;3.53;;;;;;;19.66;45.24;96435.75;5036251;28;20666;-68
2021/10/24 10:25:33;;;;;;;3.53;3.30;;;;;;;19.80;45.08;96423.03;5040043;28;20715;-68
2021/10/24 10:28:02;;;;;;;3.70;2.50;;;;;;;20.37;43.50;96428.94;5037435;28;20310;-68
2021/10/24 10:30:36;;;;;;;2.80;2.60;;;;;;;20.46;43.65;96422.25;5040236;28;20708;-68
2021/10/24 10:33:29;;;;;;;7.03;2.40;;;;;;;20.53;43.16;96419.47;5037138;28;20518;-68
2021/10/24 10:35:59;;;;;;;2.77;2.67;;;;;;;20.54;42.50;96429.97;5036828;28;20235;-68
2021/10/24 10:38:36;;;;;;;2.37;2.17;;;;;;;20.49;44.08;96424.50;5036873;28;20799;-68
2021/10/24 10:41:05;;;;;;;3.30;3.10;;;;;;;20.44;43.12;96418.97;5041700;28;20314;-68
2021/10/24 10:43:34;;;;;;;2.70;2.60;;;;;;;20.76;42.48;96418.72;5056722;28;20326;-68
2021/10/24 10:46:04;;;;;;;2.70;2.50;;;;;;;20.89;43.28;96415.84;5039887;28;20250;-68
2021/10/24 10:48:38;;;;;;;2.43;2.23;;;;;;;21.07;42.94;96421.13;5038462;28;20807;-69
2021/10/24 10:51:16;;;;;;;3.43;2.87;;;;;;;21.27;43.59;96424.34;5037539;28;20278;-69
2021/10/24 10:53:54;;;;;;;3.27;3.07;;;;;;;21.20;42.32;96417.41;5034608;28;20279;-69
2021/10/24 10:56:28;;;;;;;2.80;2.63;;;;;;;20.63;42.74;96417.88;5036399;28;20226;-69
2021/10/24 10:58:58;;;;;;;2.50;2.30;;;;;;;20.20;42.92;96414.50;5041937;28;20247;-69
2021/10/24 11:01:35;;;;;;;2.97;2.87;;;;;;;20.03;43.70;96411.66;5040242;28;20294;-68
2021/10/24 11:04:15;;;;;;;2.70;2.60;;;;;;;19.88;43.50;96409.34;5032239;28;20215;-68
2021/10/24 11:06:58;;;;;;;1.80;1.70;;;;;;;19.51;44.76;96414.66;5030420;28;20214;-68
2021/10/24 11:09:44;;;;;;;2.20;2.07;;;;;;;18.90;45.23;96426.09;5034566;28;20393;-68
2021/10/24 11:12:34;;;;;;;5.17;3.33;;;;;;;18.16;46.83;96421.38;5033857;28;20602;-68
2021/10/24 11:15:11;;;;;;;3.00;2.87;;;;;;;17.21;48.83;96422.84;5034802;28;20292;-68
2021/10/24 11:17:41;;;;;;;2.10;2.00;;;;;;;16.71;50.50;96422.41;5031999;28;20296;-69
2021/10/24 11:20:21;;;;;;;2.60;2.50;;;;;;;16.60;51.00;96426.47;5037966;28;20679;-68
2021/10/24 11:22:58;;;;;;;5.37;2.53;;;;;;;16.65;49.87;96413.34;5033421;28;20280;-69
2021/10/24 11:25:47;;;;;;;3.43;2.77;;;;;;;16.56;51.77;96419.09;5032876;28;20218;-68
2021/10/24 11:28:18;;;;;;;2.70;2.60;;;;;;;16.06;52.70;96408.69;5031801;28;20708;-68
2021/10/24 11:31:01;;;;;;;3.23;2.93;;;;;;;15.63;52.00;96414.25;5037809;28;20711;-68
2021/10/24 11:33:44;;;;;;;3.00;2.80;;;;;;;15.49;52.89;96412.50;5040787;28;20645;-68
2021/10/24 11:36:14;;;;;;;2.67;2.47;;;;;;;15.44;53.41;96408.78;5042619;28;20316;-68
2021/10/24 11:38:44;;;;;;;2.43;2.23;;;;;;;15.69;52.77;96404.66;5042038;28;20227;-68
2021/10/24 11:41:20;;;;;;;3.17;2.90;;;;;;;15.94;52.77;96399.66;5041871;28;20219;-68
2021/10/24 11:43:49;;;;;;;1.77;1.67;;;;;;;15.83;52.41;96400.22;5038754;28;20264;-68
2021/10/24 11:46:18;;;;;;;3.10;2.90;;;;;;;15.81;52.32;96399.56;5039478;28;20265;-68
2021/10/24 11:48:46;;;;;;;5.33;2.10;;;;;;;15.99;52.32;96391.88;5038997;28;20229;-69
2021/10/24 11:51:20;;;;;;;3.87;3.60;;;;;;;16.21;52.66;96385.41;5039334;28;20215;-68
2021/10/24 11:53:49;;;;;;;3.40;3.10;;;;;;;16.34;50.97;96389.09;5039489;28;20305;-68
2021/10/24 11:56:23;;;;;;;10.73;5.53;;;;;;;16.45;50.94;96385.84;5040317;28;20249;-68
2021/10/24 11:59:05;;;;;;;3.90;2.93;;;;;;;16.33;51.52;96379.47;5041452;28;20223;-68
2021/10/24 12:01:35;;;;;;;2.40;2.00;;;;;;;16.13;51.86;96382.91;5054705;28;20654;-71
2021/10/24 12:04:04;;;;;;;2.40;2.20;;;;;;;15.96;52.44;96376.31;5040648;28;20773;-71